createdAt,value
2019-01-13T00:01:39.162Z,8.20
2019-01-13T00:04:06.030Z,8.00
2019-01-13T00:06:32.586Z,8.10
2019-01-13T00:08:59.271Z,8.40
2019-01-13T00:11:25.727Z,8.30
2019-01-13T00:13:52.306Z,8.40
2019-01-13T00:16:18.959Z,8.30
2019-01-13T00:18:45.441Z,8.20
2019-01-13T00:21:11.984Z,8.10
2019-01-13T00:23:38.459Z,8.40
2019-01-13T00:26:05.017Z,8.30
2019-01-13T00:28:31.932Z,8.10
2019-01-13T00:30:58.615Z,8.30
2019-01-13T00:33:25.181Z,8.10
2019-01-13T00:35:51.773Z,8.50
2019-01-13T00:38:18.216Z,8.10
2019-01-13T00:40:44.696Z,8.30
2019-01-13T00:43:11.348Z,8.30
2019-01-13T00:45:37.930Z,8.10
2019-01-13T00:48:04.588Z,8.40
2019-01-13T00:50:31.199Z,8.30
2019-01-13T00:52:57.754Z,8.10
2019-01-13T00:55:24.229Z,8.20
2019-01-13T00:57:50.692Z,8.70
2019-01-13T01:00:26.412Z,8.70
2019-01-13T01:02:49.212Z,8.20
2019-01-13T01:05:15.766Z,8.10
2019-01-13T01:07:42.533Z,8.30
2019-01-13T01:10:12.588Z,8.40
2019-01-13T01:12:39.263Z,8.60
2019-01-13T01:15:08.564Z,8.70
2019-01-13T01:17:35.028Z,8.80
2019-01-13T01:20:01.875Z,8.70
2019-01-13T01:22:28.432Z,8.40
2019-01-13T01:24:54.880Z,8.20
2019-01-13T01:27:21.346Z,8.70
2019-01-13T01:29:47.808Z,8.40
2019-01-13T01:32:14.276Z,8.50
2019-01-13T01:34:40.829Z,8.10
2019-01-13T01:37:07.392Z,8.50
2019-01-13T01:39:33.856Z,8.70
2019-01-13T01:42:00.304Z,8.70
2019-01-13T01:44:26.779Z,8.70
2019-01-13T01:46:53.237Z,8.50
2019-01-13T01:49:19.863Z,8.60
2019-01-13T01:51:46.331Z,8.80
2019-01-13T01:54:13.189Z,8.80
2019-01-13T01:56:39.743Z,8.50
2019-01-13T01:59:07.520Z,8.40
2019-01-13T02:01:34.176Z,8.60
2019-01-13T02:04:00.791Z,8.80
2019-01-13T02:06:27.194Z,8.40
2019-01-13T02:08:55.722Z,8.60
2019-01-13T02:11:22.183Z,8.60
2019-01-13T02:13:49.031Z,8.70
2019-01-13T02:16:15.698Z,8.50
2019-01-13T02:18:42.193Z,8.70
2019-01-13T02:21:09.137Z,8.40
2019-01-13T02:23:35.674Z,8.30
2019-01-13T02:26:04.056Z,8.20
2019-01-13T02:28:31.084Z,8.40
2019-01-13T02:30:57.700Z,8.40
2019-01-13T02:33:24.146Z,8.00
2019-01-13T02:35:50.622Z,8.20
2019-01-13T02:38:17.076Z,8.10
2019-01-13T02:40:43.818Z,8.60
2019-01-13T02:43:12.797Z,8.70
2019-01-13T02:45:39.368Z,8.10
2019-01-13T02:48:06.016Z,8.30
2019-01-13T02:50:32.515Z,8.30
2019-01-13T02:52:59.065Z,8.10
2019-01-13T02:55:25.635Z,8.20
2019-01-13T02:57:52.699Z,8.10
2019-01-13T03:00:21.150Z,8.20
2019-01-13T03:02:47.723Z,8.10
2019-01-13T03:05:14.460Z,8.10
2019-01-13T03:07:41.249Z,8.40
2019-01-13T03:10:14.327Z,8.20
2019-01-13T03:12:41.296Z,8.00
2019-01-13T03:15:09.754Z,8.10
2019-01-13T03:17:36.220Z,8.00
2019-01-13T03:20:05.964Z,8.10
2019-01-13T03:22:32.350Z,8.00
2019-01-13T03:24:58.797Z,8.40
2019-01-13T03:27:25.283Z,8.00
2019-01-13T03:29:51.843Z,8.20
2019-01-13T03:32:18.329Z,8.40
2019-01-13T03:34:44.786Z,8.10
2019-01-13T03:37:11.253Z,8.40
2019-01-13T03:39:37.690Z,8.40
2019-01-13T03:42:04.329Z,8.40
2019-01-13T03:44:30.762Z,8.40
2019-01-13T03:46:57.208Z,8.40
2019-01-13T03:49:23.595Z,8.10
2019-01-13T03:51:50.156Z,7.90
2019-01-13T03:54:16.633Z,7.80
2019-01-13T03:56:43.180Z,8.10
2019-01-13T03:59:09.773Z,8.10
2019-01-13T04:01:36.419Z,8.10
2019-01-13T04:04:04.757Z,8.00
2019-01-13T04:06:31.553Z,8.10
2019-01-13T04:08:58.203Z,8.30
2019-01-13T04:11:24.665Z,8.30
2019-01-13T04:13:51.132Z,8.00
2019-01-13T04:16:17.974Z,8.00
2019-01-13T04:18:44.535Z,8.10
2019-01-13T04:21:11.088Z,8.00
2019-01-13T04:23:37.557Z,8.10
2019-01-13T04:26:04.218Z,8.10
2019-01-13T04:28:30.764Z,8.20
2019-01-13T04:30:57.506Z,8.10
2019-01-13T04:33:24.049Z,8.30
2019-01-13T04:35:50.521Z,8.10
2019-01-13T04:38:16.993Z,8.40
2019-01-13T04:40:43.450Z,8.00
2019-01-13T04:43:10.000Z,8.00
2019-01-13T04:45:36.385Z,8.00
2019-01-13T04:48:03.020Z,8.10
2019-01-13T04:50:29.607Z,8.00
2019-01-13T04:52:56.073Z,8.10
2019-01-13T04:55:22.653Z,8.40
2019-01-13T04:57:49.102Z,8.10
2019-01-13T05:00:17.979Z,8.30
2019-01-13T05:02:44.515Z,8.30
2019-01-13T05:05:11.395Z,8.30
2019-01-13T05:07:37.866Z,8.10
2019-01-13T05:10:10.902Z,8.40
2019-01-13T05:12:37.557Z,8.20
2019-01-13T05:15:05.312Z,8.10
2019-01-13T05:17:33.651Z,8.10
2019-01-13T05:20:00.284Z,8.30
2019-01-13T05:22:26.763Z,8.70
2019-01-13T05:24:53.220Z,8.40
2019-01-13T05:27:19.681Z,8.70
2019-01-13T05:29:46.039Z,8.70
2019-01-13T05:32:12.513Z,8.70
2019-01-13T05:34:38.968Z,8.70
2019-01-13T05:37:05.441Z,8.70
2019-01-13T05:39:31.897Z,8.30
2019-01-13T05:41:58.355Z,8.50
2019-01-13T05:44:24.721Z,8.70
2019-01-13T05:46:51.189Z,8.60
2019-01-13T05:49:17.666Z,8.40
2019-01-13T05:51:44.113Z,8.70
2019-01-13T05:54:10.678Z,8.50
2019-01-13T05:56:37.020Z,8.40
2019-01-13T05:59:03.422Z,8.70
2019-01-13T06:01:29.884Z,8.40
2019-01-13T06:03:56.451Z,8.60
2019-01-13T06:06:22.826Z,8.40
2019-01-13T06:08:49.293Z,8.70
2019-01-13T06:11:15.853Z,8.70
2019-01-13T06:13:42.320Z,8.70
2019-01-13T06:16:08.873Z,8.50
2019-01-13T06:18:35.348Z,8.40
2019-01-13T06:21:01.995Z,8.70
2019-01-13T06:23:28.476Z,8.40
2019-01-13T06:25:55.127Z,8.60
2019-01-13T06:28:21.600Z,8.40
2019-01-13T06:30:48.157Z,8.70
2019-01-13T06:33:14.709Z,8.40
2019-01-13T06:35:41.189Z,8.70
2019-01-13T06:38:07.730Z,8.70
2019-01-13T06:40:34.496Z,8.60
2019-01-13T06:43:00.965Z,8.40
2019-01-13T06:45:27.549Z,8.60
2019-01-13T06:47:54.200Z,8.40
2019-01-13T06:50:20.896Z,8.50
2019-01-13T06:52:47.355Z,8.70
2019-01-13T06:55:14.123Z,8.70
2019-01-13T06:57:40.697Z,8.70
2019-01-13T07:00:14.009Z,8.70
2019-01-13T07:02:40.577Z,8.70
2019-01-13T07:05:07.640Z,8.70
2019-01-13T07:07:34.476Z,8.70
2019-01-13T07:10:01.023Z,8.70
2019-01-13T07:12:27.405Z,8.70
2019-01-13T07:14:54.537Z,8.70
2019-01-13T07:17:21.132Z,8.40
2019-01-13T07:19:47.685Z,8.50
2019-01-13T07:22:14.541Z,8.40
2019-01-13T07:24:40.991Z,8.70
2019-01-13T07:27:07.740Z,8.70
2019-01-13T07:29:34.497Z,8.50
2019-01-13T07:32:01.072Z,8.50
2019-01-13T07:34:27.545Z,8.80
2019-01-13T07:36:54.153Z,9.00
2019-01-13T07:39:20.622Z,9.00
2019-01-13T07:41:47.356Z,9.10
2019-01-13T07:44:13.801Z,8.50
2019-01-13T07:46:40.463Z,8.80
2019-01-13T07:49:06.966Z,8.80
2019-01-13T07:51:33.438Z,8.80
2019-01-13T07:54:00.289Z,8.80
2019-01-13T07:56:26.767Z,9.10
2019-01-13T07:58:53.443Z,9.10
2019-01-13T08:01:19.900Z,8.70
2019-01-13T08:03:46.572Z,9.00
2019-01-13T08:06:12.933Z,9.00
2019-01-13T08:08:39.515Z,8.80
2019-01-13T08:11:06.172Z,9.10
2019-01-13T08:13:32.655Z,9.00
2019-01-13T08:15:59.556Z,9.10
2019-01-13T08:18:26.028Z,9.10
2019-01-13T08:20:52.731Z,9.40
2019-01-13T08:23:19.480Z,8.90
2019-01-13T08:25:46.060Z,8.80
2019-01-13T08:28:12.641Z,9.40
2019-01-13T08:30:39.502Z,9.30
2019-01-13T08:33:06.185Z,9.40
2019-01-13T08:35:32.733Z,9.50
2019-01-13T08:37:59.254Z,9.10
2019-01-13T08:40:25.836Z,8.90
2019-01-13T08:42:52.302Z,9.30
2019-01-13T08:45:19.190Z,9.50
2019-01-13T08:47:46.472Z,9.40
2019-01-13T08:50:15.394Z,9.30
2019-01-13T08:52:42.338Z,9.40
2019-01-13T08:55:09.000Z,9.30
2019-01-13T08:57:35.966Z,9.20
2019-01-13T09:00:12.080Z,9.30
2019-01-13T09:02:38.657Z,9.20
2019-01-13T09:05:05.809Z,9.40
2019-01-13T09:07:32.284Z,9.30
2019-01-13T09:10:00.858Z,9.40
2019-01-13T09:12:37.736Z,9.10
2019-01-13T09:15:08.716Z,9.40
2019-01-13T09:17:38.228Z,9.30
2019-01-13T09:20:08.587Z,9.50
2019-01-13T09:22:35.301Z,9.50
2019-01-13T09:25:01.764Z,9.50
2019-01-13T09:27:28.651Z,9.50
2019-01-13T09:29:55.296Z,9.40
2019-01-13T09:32:21.868Z,9.30
2019-01-13T09:34:48.466Z,9.40
2019-01-13T09:37:14.904Z,9.20
2019-01-13T09:39:41.588Z,9.20
2019-01-13T09:42:08.037Z,9.30
2019-01-13T09:44:34.513Z,9.40
2019-01-13T09:47:01.164Z,9.30
2019-01-13T09:49:27.861Z,9.20
2019-01-13T09:51:54.423Z,9.40
2019-01-13T09:54:20.923Z,9.40
2019-01-13T09:56:47.367Z,9.20
2019-01-13T09:59:13.948Z,9.30
2019-01-13T10:01:40.384Z,9.40
2019-01-13T10:04:07.239Z,9.40
2019-01-13T10:06:33.681Z,9.40
2019-01-13T10:09:00.352Z,9.30
2019-01-13T10:11:26.711Z,9.50
2019-01-13T10:13:53.268Z,9.40
2019-01-13T10:16:19.748Z,9.20
2019-01-13T10:18:46.509Z,9.30
2019-01-13T10:21:13.193Z,9.40
2019-01-13T10:23:39.721Z,9.30
2019-01-13T10:26:06.173Z,9.30
2019-01-13T10:28:32.619Z,9.40
2019-01-13T10:31:03.166Z,9.20
2019-01-13T10:33:27.640Z,9.30
2019-01-13T10:35:54.162Z,9.40
2019-01-13T10:38:20.713Z,9.30
2019-01-13T10:40:47.445Z,9.50
2019-01-13T10:43:14.937Z,9.50
2019-01-13T10:45:44.444Z,9.40
2019-01-13T10:48:11.037Z,9.30
2019-01-13T10:50:37.773Z,9.50
2019-01-13T10:53:04.761Z,9.40
2019-01-13T10:55:31.404Z,9.30
2019-01-13T10:57:57.897Z,9.50
2019-01-13T11:00:27.000Z,9.30
2019-01-13T11:02:53.795Z,9.40
2019-01-13T11:05:20.448Z,9.20
2019-01-13T11:07:47.211Z,9.30
2019-01-13T11:10:15.669Z,9.40
2019-01-13T11:12:44.255Z,9.30
2019-01-13T11:15:21.222Z,9.40
2019-01-13T11:17:42.603Z,8.80
2019-01-13T11:20:12.660Z,9.50
2019-01-13T11:22:39.724Z,9.40
2019-01-13T11:25:07.197Z,9.20
2019-01-13T11:27:33.850Z,9.50
2019-01-13T11:30:00.561Z,9.50
2019-01-13T11:32:27.240Z,9.50
2019-01-13T11:34:53.726Z,9.50
2019-01-13T11:37:20.392Z,9.40
2019-01-13T11:39:46.811Z,9.20
2019-01-13T11:42:13.257Z,9.20
2019-01-13T11:44:39.729Z,9.30
2019-01-13T11:47:06.288Z,9.50
2019-01-13T11:49:32.914Z,9.40
2019-01-13T11:51:59.588Z,9.40
2019-01-13T11:54:26.168Z,9.50
2019-01-13T11:56:52.622Z,9.50
2019-01-13T11:59:19.287Z,9.50
2019-01-13T12:01:46.040Z,9.50
2019-01-13T12:04:12.789Z,9.50
2019-01-13T12:06:39.233Z,9.50
2019-01-13T12:09:05.886Z,9.60
2019-01-13T12:11:32.976Z,9.50
2019-01-13T12:13:59.610Z,9.30
2019-01-13T12:16:26.317Z,9.50
2019-01-13T12:18:53.152Z,9.40
2019-01-13T12:21:19.708Z,9.20
2019-01-13T12:23:46.448Z,9.30
2019-01-13T12:26:13.040Z,9.50
2019-01-13T12:28:39.594Z,9.70
2019-01-13T12:31:06.376Z,9.30
2019-01-13T12:33:32.734Z,9.50
2019-01-13T12:35:59.524Z,9.50
2019-01-13T12:38:26.336Z,9.50
2019-01-13T12:40:52.933Z,9.50
2019-01-13T12:43:19.494Z,9.50
2019-01-13T12:45:46.065Z,9.50
2019-01-13T12:48:12.648Z,9.50
2019-01-13T12:50:39.303Z,9.50
2019-01-13T12:53:05.867Z,9.40
2019-01-13T12:55:32.233Z,9.40
2019-01-13T12:57:58.929Z,9.30
2019-01-13T13:00:25.579Z,9.50
2019-01-13T13:02:52.156Z,9.50
2019-01-13T13:05:19.015Z,9.50
2019-01-13T13:07:46.281Z,9.80
2019-01-13T13:10:28.152Z,9.30
2019-01-13T13:12:54.606Z,9.50
2019-01-13T13:15:21.289Z,9.50
2019-01-13T13:17:47.963Z,9.40
2019-01-13T13:20:15.116Z,9.20
2019-01-13T13:22:41.812Z,9.30
2019-01-13T13:25:12.341Z,9.80
2019-01-13T13:27:39.185Z,9.70
2019-01-13T13:30:09.662Z,9.80
2019-01-13T13:32:36.123Z,9.40
2019-01-13T13:35:04.013Z,9.20
2019-01-13T13:37:30.656Z,9.30
2019-01-13T13:39:57.147Z,9.50
2019-01-13T13:42:23.680Z,9.80
2019-01-13T13:44:50.276Z,9.40
2019-01-13T13:47:16.937Z,9.80
2019-01-13T13:49:43.378Z,9.70
2019-01-13T13:52:10.233Z,9.70
2019-01-13T13:54:36.706Z,8.90
2019-01-13T13:57:03.472Z,9.20
2019-01-13T13:59:29.948Z,9.30
2019-01-13T14:01:56.510Z,9.50
2019-01-13T14:04:22.981Z,9.50
2019-01-13T14:06:49.415Z,9.70
2019-01-13T14:09:15.816Z,9.20
2019-01-13T14:11:42.557Z,9.50
2019-01-13T14:14:08.999Z,9.50
2019-01-13T14:16:35.383Z,9.50
2019-01-13T14:19:01.953Z,9.50
2019-01-13T14:21:28.632Z,9.50
2019-01-13T14:23:55.049Z,9.50
2019-01-13T14:26:21.508Z,9.40
2019-01-13T14:28:47.964Z,9.50
2019-01-13T14:31:14.539Z,9.20
2019-01-13T14:33:41.001Z,9.50
2019-01-13T14:36:07.845Z,9.50
2019-01-13T14:38:34.298Z,9.50
2019-01-13T14:41:01.194Z,9.60
2019-01-13T14:43:27.658Z,9.80
2019-01-13T14:45:54.127Z,9.40
2019-01-13T14:48:20.655Z,9.40
2019-01-13T14:50:47.118Z,9.80
2019-01-13T14:53:13.877Z,9.50
2019-01-13T14:55:40.605Z,9.50
2019-01-13T14:58:07.279Z,9.70
2019-01-13T15:00:33.633Z,9.20
2019-01-13T15:03:00.325Z,9.20
2019-01-13T15:05:26.888Z,9.20
2019-01-13T15:07:53.356Z,9.40
2019-01-13T15:10:22.188Z,9.40
2019-01-13T15:12:49.048Z,9.30
2019-01-13T15:15:15.791Z,9.50
2019-01-13T15:17:42.934Z,9.50
2019-01-13T15:20:12.185Z,9.50
2019-01-13T15:22:39.121Z,9.50
2019-01-13T15:25:08.525Z,9.50
2019-01-13T15:27:35.088Z,9.40
2019-01-13T15:30:05.344Z,9.20
2019-01-13T15:32:31.808Z,9.20
2019-01-13T15:34:58.371Z,9.40
2019-01-13T15:37:24.727Z,9.30
2019-01-13T15:39:51.383Z,9.50
2019-01-13T15:42:17.948Z,9.50
2019-01-13T15:44:44.462Z,9.50
2019-01-13T15:47:11.178Z,9.50
2019-01-13T15:49:37.680Z,9.40
2019-01-13T15:52:04.551Z,9.40
2019-01-13T15:54:31.238Z,9.50
2019-01-13T15:56:57.714Z,9.50
2019-01-13T15:59:24.168Z,9.50
2019-01-13T16:01:50.723Z,9.50
2019-01-13T16:04:17.203Z,9.40
2019-01-13T16:06:43.657Z,9.30
2019-01-13T16:09:10.261Z,9.50
2019-01-13T16:11:36.815Z,9.50
2019-01-13T16:14:03.458Z,9.20
2019-01-13T16:16:30.132Z,9.50
2019-01-13T16:18:56.575Z,9.80
2019-01-13T16:21:23.279Z,9.40
2019-01-13T16:23:49.996Z,9.20
2019-01-13T16:26:16.581Z,9.50
2019-01-13T16:28:43.388Z,9.70
2019-01-13T16:31:10.136Z,9.50
2019-01-13T16:33:36.844Z,9.80
2019-01-13T16:36:03.546Z,9.30
2019-01-13T16:38:30.111Z,9.70
2019-01-13T16:40:56.709Z,9.50
2019-01-13T16:43:23.981Z,9.80
2019-01-13T16:45:50.631Z,9.50
2019-01-13T16:48:17.129Z,9.70
2019-01-13T16:50:44.174Z,9.20
2019-01-13T16:53:10.747Z,9.80
2019-01-13T16:55:37.466Z,9.80
2019-01-13T16:58:04.202Z,9.20
2019-01-13T17:00:31.093Z,9.50
2019-01-13T17:02:57.772Z,9.60
2019-01-13T17:05:24.940Z,9.70
2019-01-13T17:07:52.068Z,9.80
2019-01-13T17:10:20.526Z,9.70
2019-01-13T17:12:47.318Z,9.60
2019-01-13T17:15:15.852Z,9.80
2019-01-13T17:17:42.319Z,9.70
2019-01-13T17:20:14.350Z,9.50
2019-01-13T17:22:40.795Z,9.60
2019-01-13T17:25:10.680Z,9.80
2019-01-13T17:27:37.237Z,9.80
2019-01-13T17:30:07.491Z,9.90
2019-01-13T17:32:33.853Z,9.80
2019-01-13T17:35:00.795Z,9.60
2019-01-13T17:37:27.446Z,9.80
2019-01-13T17:39:54.216Z,9.60
2019-01-13T17:42:20.892Z,9.70
2019-01-13T17:44:47.456Z,9.50
2019-01-13T17:47:14.012Z,9.80
2019-01-13T17:49:40.516Z,9.70
2019-01-13T17:52:07.070Z,9.90
2019-01-13T17:54:33.518Z,9.80
2019-01-13T17:56:59.997Z,9.60
2019-01-13T17:59:26.450Z,9.80
2019-01-13T18:01:53.233Z,9.80
2019-01-13T18:04:19.737Z,9.70
2019-01-13T18:06:46.210Z,9.30
2019-01-13T18:09:12.771Z,9.50
2019-01-13T18:11:39.353Z,9.50
2019-01-13T18:14:05.841Z,9.50
2019-01-13T18:16:32.511Z,9.40
2019-01-13T18:18:59.160Z,9.30
2019-01-13T18:21:27.536Z,9.40
2019-01-13T18:23:53.899Z,9.30
2019-01-13T18:26:20.372Z,9.20
2019-01-13T18:28:46.821Z,9.00
2019-01-13T18:31:13.443Z,8.70
2019-01-13T18:33:40.211Z,8.90
2019-01-13T18:36:07.260Z,9.00
2019-01-13T18:38:34.020Z,9.10
2019-01-13T18:41:00.726Z,9.10
2019-01-13T18:43:27.168Z,8.80
2019-01-13T18:45:53.729Z,8.80
2019-01-13T18:48:20.220Z,8.80
2019-01-13T18:50:46.670Z,9.30
2019-01-13T18:53:13.648Z,9.40
2019-01-13T18:55:40.320Z,9.20
2019-01-13T18:58:07.104Z,9.30
2019-01-13T19:00:33.472Z,9.40
2019-01-13T19:03:00.176Z,9.30
2019-01-13T19:05:27.610Z,9.50
2019-01-13T19:07:54.333Z,9.50
2019-01-13T19:10:33.380Z,9.70
2019-01-13T19:13:06.917Z,9.50
2019-01-13T19:15:33.384Z,9.80
2019-01-13T19:17:59.929Z,9.70
2019-01-13T19:20:27.258Z,9.60
2019-01-13T19:22:53.707Z,9.90
2019-01-13T19:25:20.291Z,9.80
2019-01-13T19:27:46.782Z,9.70
2019-01-13T19:30:15.656Z,9.50
2019-01-13T19:32:42.308Z,9.80
2019-01-13T19:35:12.471Z,9.60
2019-01-13T19:37:39.304Z,9.70
2019-01-13T19:40:09.577Z,9.70
2019-01-13T19:42:36.132Z,9.80
2019-01-13T19:45:22.246Z,9.20
2019-01-13T19:48:06.311Z,8.60
2019-01-13T19:50:34.789Z,8.10
2019-01-13T19:53:01.710Z,7.80
2019-01-13T19:55:30.170Z,7.40
2019-01-13T19:57:56.724Z,7.80
2019-01-13T20:00:31.582Z,7.20
2019-01-13T20:02:58.291Z,7.70
2019-01-13T20:05:25.063Z,7.70
2019-01-13T20:07:51.695Z,7.70
2019-01-13T20:10:18.252Z,7.80
2019-01-13T20:12:44.776Z,7.40
2019-01-13T20:15:20.057Z,7.70
2019-01-13T20:17:46.649Z,8.00
2019-01-13T20:20:15.272Z,7.40
2019-01-13T20:22:42.057Z,7.70
2019-01-13T20:25:10.738Z,7.90
2019-01-13T20:27:37.686Z,8.00
2019-01-13T20:30:10.568Z,7.70
2019-01-13T20:32:37.029Z,8.00
2019-01-13T20:35:05.297Z,7.80
2019-01-13T20:37:31.879Z,7.80
2019-01-13T20:39:58.328Z,7.70
2019-01-13T20:42:24.834Z,8.00
2019-01-13T20:44:51.292Z,8.00
2019-01-13T20:47:17.858Z,7.80
2019-01-13T20:49:44.641Z,8.10
2019-01-13T20:52:11.305Z,7.80
2019-01-13T20:54:38.055Z,7.80
2019-01-13T20:57:04.781Z,7.80
2019-01-13T20:59:31.296Z,7.80
2019-01-13T21:01:57.666Z,7.70
2019-01-13T21:04:24.510Z,8.30
2019-01-13T21:06:50.951Z,8.10
2019-01-13T21:09:17.432Z,8.30
2019-01-13T21:11:44.170Z,8.30
2019-01-13T21:14:10.843Z,8.20
2019-01-13T21:16:37.323Z,8.40
2019-01-13T21:19:03.869Z,8.20
2019-01-13T21:21:30.454Z,8.10
2019-01-13T21:23:56.897Z,8.40
2019-01-13T21:26:23.366Z,8.30
2019-01-13T21:28:49.846Z,8.50
2019-01-13T21:31:16.507Z,8.40
2019-01-13T21:33:43.066Z,8.40
2019-01-13T21:36:09.738Z,8.30
2019-01-13T21:38:36.175Z,8.20
2019-01-13T21:41:02.728Z,8.50
2019-01-13T21:43:29.113Z,8.40
2019-01-13T21:45:55.556Z,8.20
2019-01-13T21:48:22.237Z,8.10
2019-01-13T21:50:48.589Z,8.30
2019-01-13T21:53:15.178Z,8.20
2019-01-13T21:55:41.616Z,8.10
2019-01-13T21:58:08.471Z,8.40
2019-01-13T22:00:34.924Z,8.40
2019-01-13T22:03:01.891Z,8.10
2019-01-13T22:05:28.241Z,8.50
2019-01-13T22:07:54.888Z,8.10
2019-01-13T22:10:23.011Z,8.20
2019-01-13T22:12:49.655Z,8.40
2019-01-13T22:15:17.840Z,8.30
2019-01-13T22:17:44.471Z,8.20
2019-01-13T22:20:13.763Z,8.50
2019-01-13T22:22:40.206Z,8.20
2019-01-13T22:25:08.176Z,8.10
2019-01-13T22:27:34.924Z,8.40
2019-01-13T22:30:01.593Z,8.30
2019-01-13T22:32:28.146Z,8.00
2019-01-13T22:34:54.716Z,7.80
2019-01-13T22:37:21.282Z,8.10
2019-01-13T22:39:47.748Z,8.00
2019-01-13T22:42:14.352Z,7.70
2019-01-13T22:44:40.848Z,7.80
2019-01-13T22:47:07.297Z,7.80
2019-01-13T22:49:33.782Z,8.00
2019-01-13T22:52:00.600Z,8.10
2019-01-13T22:54:27.144Z,8.30
2019-01-13T22:56:53.623Z,8.10
2019-01-13T22:59:20.328Z,8.30
2019-01-13T23:01:46.895Z,8.10
2019-01-13T23:04:13.416Z,8.00
2019-01-13T23:06:40.074Z,8.10
2019-01-13T23:09:07.113Z,8.40
2019-01-13T23:11:33.700Z,8.30
2019-01-13T23:14:00.147Z,8.10
2019-01-13T23:16:26.837Z,8.00
2019-01-13T23:18:53.595Z,8.10
2019-01-13T23:21:20.260Z,8.40
2019-01-13T23:23:46.967Z,7.90
2019-01-13T23:26:13.385Z,8.00
2019-01-13T23:28:39.839Z,7.80
2019-01-13T23:31:06.298Z,8.30
2019-01-13T23:33:32.772Z,8.20
2019-01-13T23:36:02.921Z,8.40
2019-01-13T23:38:27.821Z,8.10
2019-01-13T23:40:54.286Z,8.10
2019-01-13T23:43:20.884Z,7.90
2019-01-13T23:45:47.364Z,8.10
2019-01-13T23:48:13.852Z,7.70
2019-01-13T23:50:40.400Z,7.90
2019-01-13T23:53:06.992Z,7.80
2019-01-13T23:55:33.343Z,8.10
2019-01-13T23:57:59.953Z,8.30
